sensor_id;sensor_type;location;lat;lon;timestamp;temperature;humidity
40538;DHT22;27925;41.874;12.526;2023-04-03T02:12:38;12.90;70.90
40538;DHT22;27925;41.874;12.526;2023-04-03T02:15:04;12.90;69.80
40538;DHT22;27925;41.874;12.526;2023-04-03T02:17:30;12.80;70.20
40538;DHT22;27925;41.874;12.526;2023-04-03T02:19:56;12.90;70.70
40538;DHT22;27925;41.874;12.526;2023-04-03T02:22:21;12.90;70.40
40538;DHT22;27925;41.874;12.526;2023-04-03T02:24:47;12.80;69.90
40538;DHT22;27925;41.874;12.526;2023-04-03T02:27:13;12.80;70.00
40538;DHT22;27925;41.874;12.526;2023-04-03T02:29:38;12.80;70.40
40538;DHT22;27925;41.874;12.526;2023-04-03T02:32:04;12.80;70.50
40538;DHT22;27925;41.874;12.526;2023-04-03T02:34:30;12.80;70.40
40538;DHT22;27925;41.874;12.526;2023-04-03T02:36:56;12.80;70.60
40538;DHT22;27925;41.874;12.526;2023-04-03T02:39:22;12.70;70.50
40538;DHT22;27925;41.874;12.526;2023-04-03T02:41:47;12.70;70.40
40538;DHT22;27925;41.874;12.526;2023-04-03T02:44:13;12.70;70.40
40538;DHT22;27925;41.874;12.526;2023-04-03T02:46:39;12.60;70.40
40538;DHT22;27925;41.874;12.526;2023-04-03T02:49:05;12.60;70.50
40538;DHT22;27925;41.874;12.526;2023-04-03T02:51:31;12.60;70.60
40538;DHT22;27925;41.874;12.526;2023-04-03T02:53:57;12.60;70.60
40538;DHT22;27925;41.874;12.526;2023-04-03T02:56:22;12.50;70.20
40538;DHT22;27925;41.874;12.526;2023-04-03T02:58:48;12.50;70.30
40538;DHT22;27925;41.874;12.526;2023-04-03T03:01:14;12.50;70.30
40538;DHT22;27925;41.874;12.526;2023-04-03T03:03:40;12.50;70.40
40538;DHT22;27925;41.874;12.526;2023-04-03T03:06:09;12.50;70.50
40538;DHT22;27925;41.874;12.526;2023-04-03T03:08:36;12.50;70.80
40538;DHT22;27925;41.874;12.526;2023-04-03T03:11:02;12.50;70.70
40538;DHT22;27925;41.874;12.526;2023-04-03T03:13:27;12.50;70.40
40538;DHT22;27925;41.874;12.526;2023-04-03T03:15:53;12.50;70.40
40538;DHT22;27925;41.874;12.526;2023-04-03T03:18:19;12.40;70.20
40538;DHT22;27925;41.874;12.526;2023-04-03T03:20:45;12.40;70.30
40538;DHT22;27925;41.874;12.526;2023-04-03T03:23:11;12.40;70.20
40538;DHT22;27925;41.874;12.526;2023-04-03T03:25:40;12.40;70.10
40538;DHT22;27925;41.874;12.526;2023-04-03T03:28:06;12.40;69.80
40538;DHT22;27925;41.874;12.526;2023-04-03T03:30:33;12.40;69.80
40538;DHT22;27925;41.874;12.526;2023-04-03T03:32:58;12.40;69.30
40538;DHT22;27925;41.874;12.526;2023-04-03T03:35:24;12.30;69.20
40538;DHT22;27925;41.874;12.526;2023-04-03T03:37:50;12.30;69.10
40538;DHT22;27925;41.874;12.526;2023-04-03T03:40:16;12.30;69.00
40538;DHT22;27925;41.874;12.526;2023-04-03T03:42:41;12.30;69.20
40538;DHT22;27925;41.874;12.526;2023-04-03T03:45:08;12.30;69.10
40538;DHT22;27925;41.874;12.526;2023-04-03T03:47:34;12.40;69.50
40538;DHT22;27925;41.874;12.526;2023-04-03T03:49:59;12.30;68.90
40538;DHT22;27925;41.874;12.526;2023-04-03T03:52:25;12.30;69.40
40538;DHT22;27925;41.874;12.526;2023-04-03T03:54:51;12.30;69.30
40538;DHT22;27925;41.874;12.526;2023-04-03T03:57:17;12.30;69.10
40538;DHT22;27925;41.874;12.526;2023-04-03T03:59:43;12.30;69.30
40538;DHT22;27925;41.874;12.526;2023-04-03T04:02:10;12.30;69.30
40538;DHT22;27925;41.874;12.526;2023-04-03T04:04:36;12.30;69.30
40538;DHT22;27925;41.874;12.526;2023-04-03T04:07:02;12.30;69.30
40538;DHT22;27925;41.874;12.526;2023-04-03T04:09:28;12.20;69.00
40538;DHT22;27925;41.874;12.526;2023-04-03T04:11:54;12.30;69.20
40538;DHT22;27925;41.874;12.526;2023-04-03T04:14:20;12.30;69.00
40538;DHT22;27925;41.874;12.526;2023-04-03T04:16:46;12.30;68.90
40538;DHT22;27925;41.874;12.526;2023-04-03T04:19:13;12.30;68.90
40538;DHT22;27925;41.874;12.526;2023-04-03T04:21:39;12.30;68.80
40538;DHT22;27925;41.874;12.526;2023-04-03T04:24:05;12.30;68.80
40538;DHT22;27925;41.874;12.526;2023-04-03T04:26:31;12.30;68.70
40538;DHT22;27925;41.874;12.526;2023-04-03T04:28:57;12.30;68.60
40538;DHT22;27925;41.874;12.526;2023-04-03T04:31:22;12.30;68.70
40538;DHT22;27925;41.874;12.526;2023-04-03T04:33:48;12.30;68.60
40538;DHT22;27925;41.874;12.526;2023-04-03T04:36:14;12.30;68.60
40538;DHT22;27925;41.874;12.526;2023-04-03T04:38:40;12.30;68.70
40538;DHT22;27925;41.874;12.526;2023-04-03T04:41:06;12.30;68.90
40538;DHT22;27925;41.874;12.526;2023-04-03T04:43:32;12.30;68.90
40538;DHT22;27925;41.874;12.526;2023-04-03T04:46:06;12.30;68.60
40538;DHT22;27925;41.874;12.526;2023-04-03T04:48:33;12.30;68.80
40538;DHT22;27925;41.874;12.526;2023-04-03T04:50:59;12.30;68.70
40538;DHT22;27925;41.874;12.526;2023-04-03T04:53:24;12.30;68.60
40538;DHT22;27925;41.874;12.526;2023-04-03T04:55:51;12.40;68.90
40538;DHT22;27925;41.874;12.526;2023-04-03T04:58:17;12.40;69.60
40538;DHT22;27925;41.874;12.526;2023-04-03T05:00:43;12.40;68.80
40538;DHT22;27925;41.874;12.526;2023-04-03T05:03:08;12.40;68.60
40538;DHT22;27925;41.874;12.526;2023-04-03T05:05:34;12.40;68.80
40538;DHT22;27925;41.874;12.526;2023-04-03T05:08:01;12.40;68.80
40538;DHT22;27925;41.874;12.526;2023-04-03T05:10:27;12.40;68.90
40538;DHT22;27925;41.874;12.526;2023-04-03T05:12:53;12.50;68.90
40538;DHT22;27925;41.874;12.526;2023-04-03T05:15:19;12.50;68.50
40538;DHT22;27925;41.874;12.526;2023-04-03T05:17:45;12.50;68.40
40538;DHT22;27925;41.874;12.526;2023-04-03T05:20:11;12.50;68.10
40538;DHT22;27925;41.874;12.526;2023-04-03T05:22:37;12.60;68.80
40538;DHT22;27925;41.874;12.526;2023-04-03T05:25:03;12.60;68.20
40538;DHT22;27925;41.874;12.526;2023-04-03T05:27:29;12.70;68.10
40538;DHT22;27925;41.874;12.526;2023-04-03T05:29:55;12.70;67.80
40538;DHT22;27925;41.874;12.526;2023-04-03T05:32:25;12.80;67.90
40538;DHT22;27925;41.874;12.526;2023-04-03T05:34:53;12.80;68.10
40538;DHT22;27925;41.874;12.526;2023-04-03T05:37:19;12.80;67.70
40538;DHT22;27925;41.874;12.526;2023-04-03T05:39:45;12.80;67.80
40538;DHT22;27925;41.874;12.526;2023-04-03T05:42:11;12.90;67.90
40538;DHT22;27925;41.874;12.526;2023-04-03T05:44:37;12.90;67.70
40538;DHT22;27925;41.874;12.526;2023-04-03T05:47:03;12.90;67.60
40538;DHT22;27925;41.874;12.526;2023-04-03T05:49:29;13.00;67.60
40538;DHT22;27925;41.874;12.526;2023-04-03T05:51:55;13.10;67.60
40538;DHT22;27925;41.874;12.526;2023-04-03T05:54:25;13.10;67.40
40538;DHT22;27925;41.874;12.526;2023-04-03T05:56:52;13.20;67.30
40538;DHT22;27925;41.874;12.526;2023-04-03T05:59:19;13.40;67.10
40538;DHT22;27925;41.874;12.526;2023-04-03T06:01:45;13.60;67.20
40538;DHT22;27925;41.874;12.526;2023-04-03T06:04:11;13.80;66.60
40538;DHT22;27925;41.874;12.526;2023-04-03T06:07:06;13.90;66.40
40538;DHT22;27925;41.874;12.526;2023-04-03T06:09:35;14.10;66.20
40538;DHT22;27925;41.874;12.526;2023-04-03T06:12:01;14.30;65.40
40538;DHT22;27925;41.874;12.526;2023-04-03T06:14:27;14.30;64.80
40538;DHT22;27925;41.874;12.526;2023-04-03T06:16:53;14.40;64.20
40538;DHT22;27925;41.874;12.526;2023-04-03T06:19:21;14.50;64.00
40538;DHT22;27925;41.874;12.526;2023-04-03T06:21:47;14.60;63.60
40538;DHT22;27925;41.874;12.526;2023-04-03T06:24:15;14.80;63.40
40538;DHT22;27925;41.874;12.526;2023-04-03T06:26:42;14.90;63.10
40538;DHT22;27925;41.874;12.526;2023-04-03T06:29:08;15.10;63.30
40538;DHT22;27925;41.874;12.526;2023-04-03T06:31:34;15.20;63.20
40538;DHT22;27925;41.874;12.526;2023-04-03T06:34:02;15.30;62.60
40538;DHT22;27925;41.874;12.526;2023-04-03T06:36:28;15.30;62.10
40538;DHT22;27925;41.874;12.526;2023-04-03T06:38:54;15.40;62.00
40538;DHT22;27925;41.874;12.526;2023-04-03T06:41:20;15.50;61.70
40538;DHT22;27925;41.874;12.526;2023-04-03T06:43:47;15.60;61.50
40538;DHT22;27925;41.874;12.526;2023-04-03T06:46:21;15.70;61.10
40538;DHT22;27925;41.874;12.526;2023-04-03T06:48:48;15.70;61.40
40538;DHT22;27925;41.874;12.526;2023-04-03T06:53:44;15.90;60.30
40538;DHT22;27925;41.874;12.526;2023-04-03T06:56:11;16.00;60.50
40538;DHT22;27925;41.874;12.526;2023-04-03T06:58:37;16.10;60.10
40538;DHT22;27925;41.874;12.526;2023-04-03T07:01:03;16.20;60.00
40538;DHT22;27925;41.874;12.526;2023-04-03T07:03:28;16.20;59.70
40538;DHT22;27925;41.874;12.526;2023-04-03T07:05:54;16.40;59.50
40538;DHT22;27925;41.874;12.526;2023-04-03T07:08:20;16.50;59.40
40538;DHT22;27925;41.874;12.526;2023-04-03T07:10:48;16.60;58.60
40538;DHT22;27925;41.874;12.526;2023-04-03T07:13:14;16.70;58.40
40538;DHT22;27925;41.874;12.526;2023-04-03T07:15:40;16.80;57.90
40538;DHT22;27925;41.874;12.526;2023-04-03T07:18:05;16.90;57.80
40538;DHT22;27925;41.874;12.526;2023-04-03T07:20:31;17.00;57.20
40538;DHT22;27925;41.874;12.526;2023-04-03T07:22:57;17.00;56.40
40538;DHT22;27925;41.874;12.526;2023-04-03T07:25:23;17.10;56.40
40538;DHT22;27925;41.874;12.526;2023-04-03T07:27:48;17.20;55.70
40538;DHT22;27925;41.874;12.526;2023-04-03T07:30:15;17.20;55.00
40538;DHT22;27925;41.874;12.526;2023-04-03T07:32:40;17.10;54.50
40538;DHT22;27925;41.874;12.526;2023-04-03T07:35:07;17.20;54.60
40538;DHT22;27925;41.874;12.526;2023-04-03T07:37:32;17.10;54.90
40538;DHT22;27925;41.874;12.526;2023-04-03T07:39:58;17.20;54.30
40538;DHT22;27925;41.874;12.526;2023-04-03T07:42:25;17.20;54.20
40538;DHT22;27925;41.874;12.526;2023-04-03T07:44:53;17.10;53.60
40538;DHT22;27925;41.874;12.526;2023-04-03T07:47:19;17.10;53.60
40538;DHT22;27925;41.874;12.526;2023-04-03T07:49:46;17.10;53.40
40538;DHT22;27925;41.874;12.526;2023-04-03T07:52:12;17.20;53.30
40538;DHT22;27925;41.874;12.526;2023-04-03T07:54:40;17.20;53.40
40538;DHT22;27925;41.874;12.526;2023-04-03T07:57:06;17.20;53.40
40538;DHT22;27925;41.874;12.526;2023-04-03T07:59:32;17.20;53.80
40538;DHT22;27925;41.874;12.526;2023-04-03T08:01:58;17.30;53.80
40538;DHT22;27925;41.874;12.526;2023-04-03T08:04:24;17.30;53.90
40538;DHT22;27925;41.874;12.526;2023-04-03T08:06:50;17.30;53.70
40538;DHT22;27925;41.874;12.526;2023-04-03T08:09:16;17.40;53.80
40538;DHT22;27925;41.874;12.526;2023-04-03T08:11:43;17.30;53.40
40538;DHT22;27925;41.874;12.526;2023-04-03T08:14:08;17.30;53.70
40538;DHT22;27925;41.874;12.526;2023-04-03T08:16:40;17.30;53.70
40538;DHT22;27925;41.874;12.526;2023-04-03T08:19:07;17.30;53.40
40538;DHT22;27925;41.874;12.526;2023-04-03T08:21:33;17.30;53.20
40538;DHT22;27925;41.874;12.526;2023-04-03T08:23:58;17.30;53.30
40538;DHT22;27925;41.874;12.526;2023-04-03T08:26:24;17.40;53.40
40538;DHT22;27925;41.874;12.526;2023-04-03T08:28:52;17.40;53.10
40538;DHT22;27925;41.874;12.526;2023-04-03T08:31:18;17.40;53.10
40538;DHT22;27925;41.874;12.526;2023-04-03T08:33:46;17.40;52.40
40538;DHT22;27925;41.874;12.526;2023-04-03T08:36:23;17.50;52.30
40538;DHT22;27925;41.874;12.526;2023-04-03T08:38:51;17.50;51.70
40538;DHT22;27925;41.874;12.526;2023-04-03T08:41:27;17.60;51.80
40538;DHT22;27925;41.874;12.526;2023-04-03T08:49:39;17.60;51.00
40538;DHT22;27925;41.874;12.526;2023-04-03T08:52:11;17.70;51.20
40538;DHT22;27925;41.874;12.526;2023-04-03T08:54:54;17.70;50.60
40538;DHT22;27925;41.874;12.526;2023-04-03T08:57:39;17.80;50.30
40538;DHT22;27925;41.874;12.526;2023-04-03T09:02:48;17.90;50.90
40538;DHT22;27925;41.874;12.526;2023-04-03T09:06:07;18.00;50.20
40538;DHT22;27925;41.874;12.526;2023-04-03T09:08:53;18.00;48.70
40538;DHT22;27925;41.874;12.526;2023-04-03T09:11:26;18.10;48.90
40538;DHT22;27925;41.874;12.526;2023-04-03T09:14:13;18.10;49.50
40538;DHT22;27925;41.874;12.526;2023-04-03T09:19:25;18.20;48.10
40538;DHT22;27925;41.874;12.526;2023-04-03T09:21:56;18.20;48.00
40538;DHT22;27925;41.874;12.526;2023-04-03T09:24:23;18.20;48.00
40538;DHT22;27925;41.874;12.526;2023-04-03T09:26:56;18.30;48.20
40538;DHT22;27925;41.874;12.526;2023-04-03T09:29:25;18.40;47.60
40538;DHT22;27925;41.874;12.526;2023-04-03T09:32:00;18.40;47.70
40538;DHT22;27925;41.874;12.526;2023-04-03T09:34:30;18.50;47.70
40538;DHT22;27925;41.874;12.526;2023-04-03T09:36:59;18.50;47.60
40538;DHT22;27925;41.874;12.526;2023-04-03T09:39:32;18.60;47.90
40538;DHT22;27925;41.874;12.526;2023-04-03T09:42:14;18.70;47.60
40538;DHT22;27925;41.874;12.526;2023-04-03T09:44:41;18.70;45.50
40538;DHT22;27925;41.874;12.526;2023-04-03T09:47:36;18.70;45.80
40538;DHT22;27925;41.874;12.526;2023-04-03T09:52:50;18.90;45.70
40538;DHT22;27925;41.874;12.526;2023-04-03T09:55:27;18.90;44.20
40538;DHT22;27925;41.874;12.526;2023-04-03T09:57:58;19.00;45.50
40538;DHT22;27925;41.874;12.526;2023-04-03T10:00:30;19.00;44.80
40538;DHT22;27925;41.874;12.526;2023-04-03T10:02:57;19.00;44.70
40538;DHT22;27925;41.874;12.526;2023-04-03T10:10:40;19.20;42.60
40538;DHT22;27925;41.874;12.526;2023-04-03T10:13:20;19.30;44.70
40538;DHT22;27925;41.874;12.526;2023-04-03T10:23:44;19.40;42.60
40538;DHT22;27925;41.874;12.526;2023-04-03T10:34:46;19.70;42.40
40538;DHT22;27925;41.874;12.526;2023-04-03T10:37:24;19.80;43.60
40538;DHT22;27925;41.874;12.526;2023-04-03T10:40:01;19.90;43.40
40538;DHT22;27925;41.874;12.526;2023-04-03T11:01:40;20.10;41.50
40538;DHT22;27925;41.874;12.526;2023-04-03T11:04:09;20.20;42.00
40538;DHT22;27925;41.874;12.526;2023-04-03T11:06:41;20.20;41.70
40538;DHT22;27925;41.874;12.526;2023-04-03T11:11:44;20.40;41.30
40538;DHT22;27925;41.874;12.526;2023-04-03T11:16:45;20.50;39.90
40538;DHT22;27925;41.874;12.526;2023-04-03T11:19:20;20.60;41.10
40538;DHT22;27925;41.874;12.526;2023-04-03T11:22:01;20.60;40.80
40538;DHT22;27925;41.874;12.526;2023-04-03T11:24:32;20.60;39.40
40538;DHT22;27925;41.874;12.526;2023-04-03T11:27:00;20.70;40.50
40538;DHT22;27925;41.874;12.526;2023-04-03T11:29:35;20.70;40.50
40538;DHT22;27925;41.874;12.526;2023-04-03T11:34:47;20.70;39.40
40538;DHT22;27925;41.874;12.526;2023-04-03T11:37:37;20.70;40.00
40538;DHT22;27925;41.874;12.526;2023-04-03T11:40:08;20.80;40.00
40538;DHT22;27925;41.874;12.526;2023-04-03T11:42:40;20.70;39.70
40538;DHT22;27925;41.874;12.526;2023-04-03T11:47:58;20.70;39.20
40538;DHT22;27925;41.874;12.526;2023-04-03T11:53:00;20.80;39.40
40538;DHT22;27925;41.874;12.526;2023-04-03T12:14:03;21.00;39.10
40538;DHT22;27925;41.874;12.526;2023-04-03T12:24:31;21.10;39.00
40538;DHT22;27925;41.874;12.526;2023-04-03T12:39:55;21.40;37.10
40538;DHT22;27925;41.874;12.526;2023-04-03T12:45:21;21.50;38.30
40538;DHT22;27925;41.874;12.526;2023-04-03T12:47:53;21.50;37.70
40538;DHT22;27925;41.874;12.526;2023-04-03T12:50:30;21.40;37.40
40538;DHT22;27925;41.874;12.526;2023-04-03T12:53:19;21.40;37.00
40538;DHT22;27925;41.874;12.526;2023-04-03T12:55:48;21.40;36.30
40538;DHT22;27925;41.874;12.526;2023-04-03T12:58:22;21.40;36.80
40538;DHT22;27925;41.874;12.526;2023-04-03T13:01:02;21.40;36.30
40538;DHT22;27925;41.874;12.526;2023-04-03T13:03:29;21.30;36.00
40538;DHT22;27925;41.874;12.526;2023-04-03T13:05:59;21.20;36.20
40538;DHT22;27925;41.874;12.526;2023-04-03T13:08:25;21.20;36.10
40538;DHT22;27925;41.874;12.526;2023-04-03T13:10:53;21.30;36.60
40538;DHT22;27925;41.874;12.526;2023-04-03T13:13:20;21.40;36.90
40538;DHT22;27925;41.874;12.526;2023-04-03T13:15:49;21.40;36.70
40538;DHT22;27925;41.874;12.526;2023-04-03T13:18:44;21.50;36.90
40538;DHT22;27925;41.874;12.526;2023-04-03T13:21:21;21.50;35.90
40538;DHT22;27925;41.874;12.526;2023-04-03T13:23:49;21.60;37.10
40538;DHT22;27925;41.874;12.526;2023-04-03T13:26:17;21.60;37.10
40538;DHT22;27925;41.874;12.526;2023-04-03T13:28:45;21.70;37.00
40538;DHT22;27925;41.874;12.526;2023-04-03T13:31:33;21.70;36.60
40538;DHT22;27925;41.874;12.526;2023-04-03T13:36:57;21.70;36.90
40538;DHT22;27925;41.874;12.526;2023-04-03T13:39:32;21.70;36.00
40538;DHT22;27925;41.874;12.526;2023-04-03T13:42:36;21.60;36.80
40538;DHT22;27925;41.874;12.526;2023-04-03T13:45:21;21.60;37.20
40538;DHT22;27925;41.874;12.526;2023-04-03T13:47:50;21.60;36.40
40538;DHT22;27925;41.874;12.526;2023-04-03T13:50:21;21.60;36.50
40538;DHT22;27925;41.874;12.526;2023-04-03T13:55:29;21.60;36.60
40538;DHT22;27925;41.874;12.526;2023-04-03T13:57:59;21.60;36.20
40538;DHT22;27925;41.874;12.526;2023-04-03T14:03:01;21.60;36.60
40538;DHT22;27925;41.874;12.526;2023-04-03T14:05:27;21.60;37.10
40538;DHT22;27925;41.874;12.526;2023-04-03T14:07:54;21.60;37.00
40538;DHT22;27925;41.874;12.526;2023-04-03T14:10:20;21.60;37.10
40538;DHT22;27925;41.874;12.526;2023-04-03T14:12:46;21.60;36.70
40538;DHT22;27925;41.874;12.526;2023-04-03T14:15:28;21.50;36.40
40538;DHT22;27925;41.874;12.526;2023-04-03T14:17:54;21.50;36.70
40538;DHT22;27925;41.874;12.526;2023-04-03T14:20:25;21.50;36.10
40538;DHT22;27925;41.874;12.526;2023-04-03T14:22:51;21.50;36.40
40538;DHT22;27925;41.874;12.526;2023-04-03T14:25:18;21.60;36.20
40538;DHT22;27925;41.874;12.526;2023-04-03T14:27:48;21.60;36.50
40538;DHT22;27925;41.874;12.526;2023-04-03T14:32:49;21.70;36.10
40538;DHT22;27925;41.874;12.526;2023-04-03T14:35:16;21.60;36.50
40538;DHT22;27925;41.874;12.526;2023-04-03T14:37:42;21.60;36.40
40538;DHT22;27925;41.874;12.526;2023-04-03T14:40:11;21.50;36.60
40538;DHT22;27925;41.874;12.526;2023-04-03T14:42:38;21.50;36.70
40538;DHT22;27925;41.874;12.526;2023-04-03T14:45:07;21.40;35.90
40538;DHT22;27925;41.874;12.526;2023-04-03T14:47:48;21.30;35.70
40538;DHT22;27925;41.874;12.526;2023-04-03T14:50:17;21.20;35.10
40538;DHT22;27925;41.874;12.526;2023-04-03T14:52:44;21.20;35.60
40538;DHT22;27925;41.874;12.526;2023-04-03T14:55:20;21.20;36.60
40538;DHT22;27925;41.874;12.526;2023-04-03T14:57:46;21.10;35.80
40538;DHT22;27925;41.874;12.526;2023-04-03T15:00:19;21.10;35.70
40538;DHT22;27925;41.874;12.526;2023-04-03T15:02:46;21.10;36.40
40538;DHT22;27925;41.874;12.526;2023-04-03T15:05:13;21.20;36.50
40538;DHT22;27925;41.874;12.526;2023-04-03T15:07:52;21.20;36.70
40538;DHT22;27925;41.874;12.526;2023-04-03T15:10:22;21.10;36.40
40538;DHT22;27925;41.874;12.526;2023-04-03T15:12:49;21.00;36.60
40538;DHT22;27925;41.874;12.526;2023-04-03T15:15:17;21.00;36.60
40538;DHT22;27925;41.874;12.526;2023-04-03T15:17:43;20.90;36.90
40538;DHT22;27925;41.874;12.526;2023-04-03T15:20:17;21.00;37.00
40538;DHT22;27925;41.874;12.526;2023-04-03T15:22:43;21.00;37.10
40538;DHT22;27925;41.874;12.526;2023-04-03T15:25:09;21.00;36.80
40538;DHT22;27925;41.874;12.526;2023-04-03T15:27:36;20.90;36.90
40538;DHT22;27925;41.874;12.526;2023-04-03T15:30:04;21.00;37.40
40538;DHT22;27925;41.874;12.526;2023-04-03T15:32:30;20.90;37.20
40538;DHT22;27925;41.874;12.526;2023-04-03T15:34:56;20.70;37.40
40538;DHT22;27925;41.874;12.526;2023-04-03T15:37:22;20.70;37.90
40538;DHT22;27925;41.874;12.526;2023-04-03T15:39:48;20.70;37.80
40538;DHT22;27925;41.874;12.526;2023-04-03T15:42:14;20.70;37.80
40538;DHT22;27925;41.874;12.526;2023-04-03T15:44:40;20.70;38.20
40538;DHT22;27925;41.874;12.526;2023-04-03T15:47:06;20.60;38.10
40538;DHT22;27925;41.874;12.526;2023-04-03T15:49:33;20.60;38.50
40538;DHT22;27925;41.874;12.526;2023-04-03T15:51:59;20.50;38.30
40538;DHT22;27925;41.874;12.526;2023-04-03T15:54:25;20.50;38.40
40538;DHT22;27925;41.874;12.526;2023-04-03T15:56:51;20.40;38.50
40538;DHT22;27925;41.874;12.526;2023-04-03T15:59:17;20.30;39.10
40538;DHT22;27925;41.874;12.526;2023-04-03T16:01:43;20.20;38.90
40538;DHT22;27925;41.874;12.526;2023-04-03T16:04:09;20.10;39.20
40538;DHT22;27925;41.874;12.526;2023-04-03T16:06:36;20.00;39.20
40538;DHT22;27925;41.874;12.526;2023-04-03T16:09:03;20.00;39.40
40538;DHT22;27925;41.874;12.526;2023-04-03T16:11:29;19.90;39.20
40538;DHT22;27925;41.874;12.526;2023-04-03T16:13:55;19.70;39.30
40538;DHT22;27925;41.874;12.526;2023-04-03T16:16:22;19.60;39.90
40538;DHT22;27925;41.874;12.526;2023-04-03T16:18:49;19.60;39.30
40538;DHT22;27925;41.874;12.526;2023-04-03T16:21:16;19.60;39.20
40538;DHT22;27925;41.874;12.526;2023-04-03T16:23:43;19.50;39.30
40538;DHT22;27925;41.874;12.526;2023-04-03T16:26:09;19.50;39.70
40538;DHT22;27925;41.874;12.526;2023-04-03T16:28:35;19.50;39.70
40538;DHT22;27925;41.874;12.526;2023-04-03T16:31:01;19.50;39.70
40538;DHT22;27925;41.874;12.526;2023-04-03T16:33:27;19.40;39.80
40538;DHT22;27925;41.874;12.526;2023-04-03T16:35:53;19.30;40.20
40538;DHT22;27925;41.874;12.526;2023-04-03T16:38:19;19.30;40.40
40538;DHT22;27925;41.874;12.526;2023-04-03T16:40:45;19.30;40.20
40538;DHT22;27925;41.874;12.526;2023-04-03T16:43:11;19.30;40.20
40538;DHT22;27925;41.874;12.526;2023-04-03T16:45:37;19.20;40.00
40538;DHT22;27925;41.874;12.526;2023-04-03T16:48:03;19.10;40.60
40538;DHT22;27925;41.874;12.526;2023-04-03T16:50:29;19.10;40.10
40538;DHT22;27925;41.874;12.526;2023-04-03T16:52:55;19.00;40.60
40538;DHT22;27925;41.874;12.526;2023-04-03T16:55:20;18.90;40.60
40538;DHT22;27925;41.874;12.526;2023-04-03T16:57:46;18.80;40.40
40538;DHT22;27925;41.874;12.526;2023-04-03T17:00:12;18.70;40.40
40538;DHT22;27925;41.874;12.526;2023-04-03T17:02:39;18.60;40.70
40538;DHT22;27925;41.874;12.526;2023-04-03T17:05:06;18.50;41.00
40538;DHT22;27925;41.874;12.526;2023-04-03T17:07:34;18.40;40.60
40538;DHT22;27925;41.874;12.526;2023-04-03T17:10:00;18.30;40.90
40538;DHT22;27925;41.874;12.526;2023-04-03T17:12:26;18.30;41.10
40538;DHT22;27925;41.874;12.526;2023-04-03T17:14:52;18.10;41.10
40538;DHT22;27925;41.874;12.526;2023-04-03T17:17:23;18.10;41.30
40538;DHT22;27925;41.874;12.526;2023-04-03T17:19:50;18.00;41.90
40538;DHT22;27925;41.874;12.526;2023-04-03T17:22:15;17.90;41.50
40538;DHT22;27925;41.874;12.526;2023-04-03T17:24:42;17.80;41.50
40538;DHT22;27925;41.874;12.526;2023-04-03T17:27:09;17.70;42.00
40538;DHT22;27925;41.874;12.526;2023-04-03T17:29:35;17.60;41.80
40538;DHT22;27925;41.874;12.526;2023-04-03T17:32:01;17.50;42.00
40538;DHT22;27925;41.874;12.526;2023-04-03T17:34:27;17.50;41.60
40538;DHT22;27925;41.874;12.526;2023-04-03T17:36:52;17.40;42.00
40538;DHT22;27925;41.874;12.526;2023-04-03T17:39:18;17.30;42.40
40538;DHT22;27925;41.874;12.526;2023-04-03T17:41:44;17.30;42.50
40538;DHT22;27925;41.874;12.526;2023-04-03T17:44:14;17.20;41.70
40538;DHT22;27925;41.874;12.526;2023-04-03T17:46:40;17.00;42.30
40538;DHT22;27925;41.874;12.526;2023-04-03T17:49:06;17.00;42.60
40538;DHT22;27925;41.874;12.526;2023-04-03T17:51:32;16.90;42.20
40538;DHT22;27925;41.874;12.526;2023-04-03T17:54:01;16.80;41.10
40538;DHT22;27925;41.874;12.526;2023-04-03T17:56:27;16.80;41.60
40538;DHT22;27925;41.874;12.526;2023-04-03T17:58:54;16.70;41.30
40538;DHT22;27925;41.874;12.526;2023-04-03T18:01:34;16.60;41.70
40538;DHT22;27925;41.874;12.526;2023-04-03T18:04:03;16.50;41.70
40538;DHT22;27925;41.874;12.526;2023-04-03T18:06:39;16.50;41.70
40538;DHT22;27925;41.874;12.526;2023-04-03T18:09:17;16.40;41.60
40538;DHT22;27925;41.874;12.526;2023-04-03T18:11:45;16.40;41.70
40538;DHT22;27925;41.874;12.526;2023-04-03T18:14:13;16.30;41.60
40538;DHT22;27925;41.874;12.526;2023-04-03T18:16:39;16.20;42.00
40538;DHT22;27925;41.874;12.526;2023-04-03T18:19:05;16.10;41.30
40538;DHT22;27925;41.874;12.526;2023-04-03T18:21:32;16.10;41.60
40538;DHT22;27925;41.874;12.526;2023-04-03T18:23:58;16.00;41.40
40538;DHT22;27925;41.874;12.526;2023-04-03T18:26:27;16.00;41.40
40538;DHT22;27925;41.874;12.526;2023-04-03T18:28:57;15.90;41.70
40538;DHT22;27925;41.874;12.526;2023-04-03T18:31:25;15.90;41.70
40538;DHT22;27925;41.874;12.526;2023-04-03T18:33:52;15.80;41.60
40538;DHT22;27925;41.874;12.526;2023-04-03T18:36:20;15.70;41.20
40538;DHT22;27925;41.874;12.526;2023-04-03T18:38:46;15.70;41.40
40538;DHT22;27925;41.874;12.526;2023-04-03T18:41:12;15.60;41.00
40538;DHT22;27925;41.874;12.526;2023-04-03T18:43:38;15.50;41.20
40538;DHT22;27925;41.874;12.526;2023-04-03T18:46:05;15.40;41.10
40538;DHT22;27925;41.874;12.526;2023-04-03T18:48:34;15.40;41.00
40538;DHT22;27925;41.874;12.526;2023-04-03T18:51:00;15.20;41.00
40538;DHT22;27925;41.874;12.526;2023-04-03T18:53:27;15.20;40.90
40538;DHT22;27925;41.874;12.526;2023-04-03T18:55:53;15.10;40.90
40538;DHT22;27925;41.874;12.526;2023-04-03T18:58:18;15.00;40.70
40538;DHT22;27925;41.874;12.526;2023-04-03T19:00:44;15.00;40.60
40538;DHT22;27925;41.874;12.526;2023-04-03T19:03:10;15.00;40.80
40538;DHT22;27925;41.874;12.526;2023-04-03T19:05:38;14.90;40.80
40538;DHT22;27925;41.874;12.526;2023-04-03T19:08:04;14.80;40.50
40538;DHT22;27925;41.874;12.526;2023-04-03T19:10:30;14.80;40.70
40538;DHT22;27925;41.874;12.526;2023-04-03T19:12:56;14.80;40.90
40538;DHT22;27925;41.874;12.526;2023-04-03T19:15:22;14.80;41.00
40538;DHT22;27925;41.874;12.526;2023-04-03T19:17:50;14.70;41.20
40538;DHT22;27925;41.874;12.526;2023-04-03T19:20:16;14.70;41.40
40538;DHT22;27925;41.874;12.526;2023-04-03T19:22:42;14.70;41.50
40538;DHT22;27925;41.874;12.526;2023-04-03T19:25:09;14.70;41.80
40538;DHT22;27925;41.874;12.526;2023-04-03T19:27:37;14.80;42.50
40538;DHT22;27925;41.874;12.526;2023-04-03T19:30:04;14.90;42.50
40538;DHT22;27925;41.874;12.526;2023-04-03T19:32:30;14.90;42.10
40538;DHT22;27925;41.874;12.526;2023-04-03T19:34:57;14.80;42.00
40538;DHT22;27925;41.874;12.526;2023-04-03T19:37:23;14.70;42.00